createdAt,value
2018-05-24T04:33:52.210Z,135
2018-05-24T04:34:50.888Z,140
2018-05-24T04:35:50.744Z,140
2018-05-24T04:36:50.965Z,145
2018-05-24T04:37:50.514Z,150
2018-05-24T04:38:50.882Z,150
2018-05-24T04:39:51.181Z,155
2018-05-24T04:40:51.067Z,160
2018-05-24T04:41:51.169Z,155
2018-05-24T04:42:51.841Z,160
2018-05-24T04:43:51.091Z,160
2018-05-24T04:44:53.290Z,165
2018-05-24T04:45:52.016Z,175
2018-05-24T04:46:51.965Z,170
2018-05-24T04:47:52.020Z,170
2018-05-24T04:48:52.388Z,175
2018-05-24T04:49:52.199Z,175
2018-05-24T04:50:52.376Z,180
2018-05-24T04:51:53.086Z,180
2018-05-24T04:52:52.420Z,180
2018-05-24T04:53:53.267Z,180
2018-05-24T04:54:53.978Z,180
2018-05-24T04:55:53.760Z,180
2018-05-24T04:56:54.170Z,185
2018-05-24T04:57:53.916Z,185
2018-05-24T04:58:53.961Z,180
2018-05-24T04:59:54.112Z,185
2018-05-24T05:00:54.700Z,190
2018-05-24T05:01:54.485Z,195
2018-05-24T05:02:55.020Z,200
2018-05-24T05:03:55.384Z,210
2018-05-24T05:04:55.119Z,220
2018-05-24T05:05:55.607Z,215
2018-05-24T05:06:55.114Z,225
2018-05-24T05:07:55.441Z,220
2018-05-24T05:08:56.038Z,220
2018-05-24T05:09:56.034Z,220
2018-05-24T05:10:56.301Z,225
2018-05-24T05:11:55.851Z,220
2018-05-24T05:12:56.214Z,220
2018-05-24T05:13:55.914Z,220
2018-05-24T05:14:55.996Z,220
2018-05-24T05:15:56.375Z,225
2018-05-24T05:16:55.973Z,220
2018-05-24T05:17:56.747Z,215
2018-05-24T05:18:55.970Z,225
2018-05-24T05:19:56.789Z,225
2018-05-24T05:20:56.829Z,220
2018-05-24T05:21:56.089Z,225
2018-05-24T05:22:56.688Z,220
2018-05-24T05:23:56.671Z,225
2018-05-24T05:24:57.295Z,230
2018-05-24T05:25:58.660Z,235
2018-05-24T05:26:57.538Z,230
2018-05-24T05:27:57.835Z,230
2018-05-24T05:28:58.573Z,230
2018-05-24T05:29:58.324Z,235
2018-05-24T05:30:58.791Z,235
2018-05-24T05:31:58.933Z,245
2018-05-24T05:32:58.702Z,245
2018-05-24T05:33:58.998Z,245
2018-05-24T05:34:59.158Z,245
2018-05-24T05:35:59.003Z,245
2018-05-24T05:36:59.317Z,245
2018-05-24T05:37:58.987Z,250
2018-05-24T05:38:58.821Z,255
2018-05-24T05:39:59.480Z,250
2018-05-24T05:40:59.390Z,250
2018-05-24T05:41:59.159Z,255
2018-05-24T05:42:59.137Z,260
2018-05-24T05:43:59.674Z,270
2018-05-24T05:44:59.841Z,280
2018-05-24T05:45:59.836Z,290
2018-05-24T05:46:59.856Z,295
2018-05-24T05:47:59.971Z,300
2018-05-24T05:49:00.034Z,300
2018-05-24T05:50:00.001Z,300
2018-05-24T05:50:59.462Z,310
2018-05-24T05:52:00.646Z,320
2018-05-24T05:52:59.786Z,305
2018-05-24T05:54:00.405Z,295
2018-05-24T05:55:00.390Z,280
2018-05-24T05:56:01.062Z,270
2018-05-24T05:57:00.968Z,265
2018-05-24T05:58:01.053Z,265
2018-05-24T05:59:01.109Z,265
2018-05-24T06:00:00.558Z,260
2018-05-24T06:01:01.161Z,260
2018-05-24T06:02:01.504Z,260
2018-05-24T06:03:00.872Z,260
2018-05-24T06:04:00.542Z,260
2018-05-24T06:05:01.106Z,260
2018-05-24T06:06:01.820Z,265
2018-05-24T06:07:01.464Z,270
2018-05-24T06:08:00.912Z,270
2018-05-24T06:09:01.452Z,290
2018-05-24T06:10:01.590Z,295
2018-05-24T06:11:01.732Z,300
2018-05-24T06:12:01.825Z,300
2018-05-24T06:13:01.752Z,345
2018-05-24T06:14:02.153Z,445
2018-05-24T06:15:01.167Z,480
2018-05-24T06:16:01.884Z,725
2018-05-24T06:17:02.064Z,1040
2018-05-24T06:18:02.083Z,1285
2018-05-24T06:19:02.435Z,1395
2018-05-24T06:20:02.514Z,1520
2018-05-24T06:21:02.635Z,1540
2018-05-24T06:22:02.458Z,1665
2018-05-24T06:23:05.112Z,1690
2018-05-24T06:24:03.930Z,1680
2018-05-24T06:25:04.798Z,1635
2018-05-24T06:26:03.849Z,1685
2018-05-24T06:27:03.280Z,1840
2018-05-24T06:28:03.538Z,1820
2018-05-24T06:29:04.769Z,1825
2018-05-24T06:30:04.532Z,1920
2018-05-24T06:31:04.491Z,1940
2018-05-24T06:32:04.610Z,1770
2018-05-24T06:33:05.054Z,1800
2018-05-24T06:34:04.862Z,1775
2018-05-24T06:35:05.813Z,1970
2018-05-24T06:36:05.032Z,2000
2018-05-24T06:37:05.767Z,2025
2018-05-24T06:38:05.915Z,1935
2018-05-24T06:39:05.450Z,2005
2018-05-24T06:40:05.966Z,2030
2018-05-24T06:41:06.110Z,2070
2018-05-24T06:42:06.524Z,2100
2018-05-24T06:43:05.902Z,2085
2018-05-24T06:44:06.174Z,2100
2018-05-24T06:45:06.978Z,2110
2018-05-24T06:46:06.495Z,2125
2018-05-24T06:47:07.025Z,2135
2018-05-24T06:48:06.997Z,2170
2018-05-24T06:49:06.728Z,2025
2018-05-24T06:50:06.920Z,1605
2018-05-24T06:51:06.987Z,1420
2018-05-24T06:52:07.296Z,1530
2018-05-24T06:53:07.676Z,1765
2018-05-24T06:54:08.067Z,2070
2018-05-24T06:55:07.604Z,2000
2018-05-24T06:56:08.462Z,1885
2018-05-24T06:57:07.976Z,1640
2018-05-24T06:58:07.141Z,1390
2018-05-24T06:59:07.892Z,1100
2018-05-24T07:00:11.318Z,890
2018-05-24T07:01:07.676Z,875
2018-05-24T07:02:07.588Z,670
2018-05-24T07:03:07.622Z,725
2018-05-24T07:04:07.354Z,1045
2018-05-24T07:05:08.316Z,1035
2018-05-24T07:06:08.428Z,860
2018-05-24T07:07:08.106Z,845
2018-05-24T07:08:08.340Z,870
2018-05-24T07:09:08.391Z,800
2018-05-24T07:10:08.502Z,675
2018-05-24T07:11:08.778Z,510
2018-05-24T07:12:08.676Z,420
2018-05-24T07:13:08.524Z,385
2018-05-24T07:14:09.040Z,385
2018-05-24T07:15:09.903Z,420
2018-05-24T07:16:09.228Z,485
2018-05-24T07:17:09.605Z,575
2018-05-24T07:18:09.740Z,620
2018-05-24T07:19:09.800Z,645
2018-05-24T07:20:10.649Z,650
2018-05-24T07:21:10.236Z,680
2018-05-24T07:22:10.982Z,710
2018-05-24T07:23:12.322Z,725
2018-05-24T07:24:11.143Z,790
2018-05-24T07:25:11.949Z,795
2018-05-24T07:26:10.640Z,790
2018-05-24T07:27:11.311Z,820
2018-05-24T07:28:11.000Z,975
2018-05-24T07:29:12.055Z,1695
2018-05-24T07:30:12.177Z,2055
2018-05-24T07:31:11.035Z,1850
2018-05-24T07:32:11.211Z,2110
2018-05-24T07:33:11.650Z,2005
2018-05-24T07:34:10.922Z,1770
2018-05-24T07:35:11.151Z,1990
2018-05-24T07:36:11.013Z,2130
2018-05-24T07:37:11.601Z,1975
2018-05-24T07:38:11.740Z,2360
2018-05-24T07:39:11.499Z,2230
2018-05-24T07:40:12.524Z,2380
2018-05-24T07:41:11.936Z,2415
2018-05-24T07:42:11.678Z,2410
2018-05-24T07:43:11.887Z,2455
2018-05-24T07:44:12.702Z,2320
2018-05-24T07:45:13.374Z,2240
2018-05-24T07:46:13.348Z,2270
2018-05-24T07:47:13.016Z,1980
2018-05-24T07:48:13.499Z,2255
2018-05-24T07:49:13.846Z,2490
2018-05-24T07:50:13.951Z,2485
2018-05-24T07:51:14.604Z,2395
2018-05-24T07:52:14.373Z,2410
2018-05-24T07:53:14.454Z,2430
2018-05-24T07:54:15.111Z,2260
2018-05-24T07:55:15.516Z,2225
2018-05-24T07:56:15.241Z,2375
2018-05-24T07:57:15.149Z,2440
2018-05-24T07:58:15.316Z,2340
2018-05-24T07:59:15.113Z,2450
2018-05-24T08:00:19.080Z,2580
2018-05-24T08:01:15.390Z,2465
2018-05-24T08:02:15.703Z,2350
2018-05-24T08:03:15.590Z,2460
2018-05-24T08:04:15.885Z,2450
2018-05-24T08:05:16.303Z,2220
2018-05-24T08:06:16.550Z,2000
2018-05-24T08:07:16.366Z,2165
2018-05-24T08:08:16.345Z,2290
2018-05-24T08:09:15.935Z,2335
2018-05-24T08:10:17.346Z,2405
2018-05-24T08:11:16.337Z,2515
2018-05-24T08:12:16.534Z,2580
2018-05-24T08:13:16.739Z,2625
2018-05-24T08:14:17.529Z,2595
2018-05-24T08:15:17.635Z,2425
2018-05-24T08:16:17.155Z,2485
2018-05-24T08:17:17.556Z,2600
2018-05-24T08:18:17.481Z,2665
2018-05-24T08:19:17.210Z,2680
2018-05-24T08:20:18.168Z,2690
2018-05-24T08:21:18.320Z,2700
2018-05-24T08:22:18.298Z,2680
2018-05-24T08:23:18.776Z,2775
2018-05-24T08:24:17.906Z,2710
2018-05-24T08:25:18.632Z,2630
2018-05-24T08:26:18.306Z,2720
2018-05-24T08:27:18.023Z,2850
2018-05-24T08:28:18.319Z,2815
2018-05-24T08:29:18.548Z,2765
2018-05-24T08:30:18.384Z,2840
2018-05-24T08:31:18.197Z,2900
2018-05-24T08:32:18.449Z,2820
2018-05-24T08:33:18.499Z,2805
2018-05-24T08:34:18.826Z,2690
2018-05-24T08:35:19.051Z,2675
2018-05-24T08:36:18.888Z,2840
2018-05-24T08:37:18.681Z,2830
2018-05-24T08:38:18.299Z,2785
2018-05-24T08:39:19.291Z,2680
2018-05-24T08:40:18.746Z,2625
2018-05-24T08:41:19.220Z,2785
2018-05-24T08:42:19.921Z,2780
2018-05-24T08:43:19.870Z,2790
2018-05-24T08:44:20.153Z,2670
2018-05-24T08:45:20.371Z,2475
2018-05-24T08:46:20.126Z,2210
2018-05-24T08:47:21.163Z,2110
2018-05-24T08:48:20.741Z,2015
2018-05-24T08:49:20.378Z,2000
2018-05-24T08:50:20.870Z,2335
2018-05-24T08:51:21.418Z,2555
2018-05-24T08:52:21.167Z,2340
2018-05-24T08:53:21.653Z,2385
2018-05-24T08:54:21.497Z,1800
2018-05-24T08:55:22.429Z,1520
2018-05-24T08:56:22.026Z,1715
2018-05-24T08:57:22.442Z,1695
2018-05-24T08:58:23.505Z,1635
2018-05-24T08:59:22.206Z,1465
2018-05-24T09:00:31.839Z,1765
2018-05-24T09:01:32.715Z,1950
2018-05-24T09:02:33.154Z,2245
2018-05-24T09:03:32.625Z,2795
2018-05-24T09:04:32.488Z,2800
2018-05-24T09:05:32.565Z,2740
2018-05-24T09:06:33.004Z,2855
2018-05-24T09:07:32.949Z,3070
2018-05-24T09:08:32.715Z,3270
2018-05-24T09:09:33.050Z,3125
2018-05-24T09:10:33.352Z,2730
2018-05-24T09:11:34.045Z,2700
2018-05-24T09:12:33.885Z,2850
2018-05-24T09:13:33.860Z,2750
2018-05-24T09:14:34.230Z,2695
2018-05-24T09:15:33.939Z,2885
2018-05-24T09:16:34.690Z,3030
2018-05-24T09:17:34.723Z,3070
2018-05-24T09:18:34.406Z,3010
2018-05-24T09:19:34.914Z,3075
2018-05-24T09:20:34.634Z,3315
2018-05-24T09:21:35.035Z,3150
2018-05-24T09:22:35.457Z,2835
2018-05-24T09:23:35.593Z,2925
2018-05-24T09:24:36.052Z,2735
2018-05-24T09:25:36.509Z,2370
2018-05-24T09:26:37.206Z,2580
2018-05-24T09:27:36.475Z,2560
2018-05-24T09:28:36.489Z,2560
2018-05-24T09:29:37.630Z,2995
2018-05-24T09:30:37.254Z,3165
2018-05-24T09:31:37.212Z,3045
2018-05-24T09:32:37.106Z,2510
2018-05-24T09:33:38.341Z,2745
2018-05-24T09:34:37.484Z,3210
2018-05-24T09:35:37.629Z,3360
2018-05-24T09:36:37.581Z,3250
2018-05-24T09:37:38.403Z,3155
2018-05-24T09:38:38.474Z,3355
2018-05-24T09:39:37.929Z,3340
2018-05-24T09:40:38.532Z,3390
2018-05-24T09:41:38.353Z,3165
2018-05-24T09:42:38.321Z,2915
2018-05-24T09:43:38.606Z,2740
2018-05-24T09:44:38.597Z,3055
2018-05-24T09:45:38.504Z,3325
2018-05-24T09:46:38.127Z,3030
2018-05-24T09:47:38.648Z,2630
2018-05-24T09:48:38.791Z,2985
2018-05-24T09:49:39.705Z,2470
2018-05-24T09:50:39.291Z,1620
2018-05-24T09:51:39.385Z,1510
2018-05-24T09:52:39.253Z,1470
2018-05-24T09:53:39.178Z,1325
2018-05-24T09:54:39.158Z,1390
2018-05-24T09:55:38.743Z,1675
2018-05-24T09:56:39.472Z,1770
2018-05-24T09:57:39.433Z,1675
2018-05-24T09:58:40.159Z,1705
2018-05-24T09:59:39.378Z,2310
2018-05-24T10:00:39.726Z,2790
2018-05-24T10:01:40.399Z,2800
2018-05-24T10:02:39.959Z,2860
2018-05-24T10:03:40.519Z,2910
2018-05-24T10:04:40.914Z,3025
2018-05-24T10:05:41.105Z,2975
2018-05-24T10:06:40.893Z,2915
2018-05-24T10:07:41.021Z,3055
2018-05-24T10:08:41.283Z,3125
2018-05-24T10:09:41.109Z,3145
2018-05-24T10:10:43.283Z,3310
2018-05-24T10:11:41.595Z,3180
2018-05-24T10:12:42.036Z,3280
2018-05-24T10:13:42.436Z,3370
2018-05-24T10:14:41.424Z,3210
2018-05-24T10:15:41.995Z,2970
2018-05-24T10:16:42.633Z,3090
2018-05-24T10:17:42.629Z,3285
2018-05-24T10:18:42.244Z,3405
2018-05-24T10:19:43.185Z,3280
2018-05-24T10:20:42.905Z,3285
2018-05-24T10:21:43.616Z,3300
2018-05-24T10:22:43.355Z,3415
2018-05-24T10:23:44.509Z,3245
2018-05-24T10:24:44.296Z,3105
2018-05-24T10:25:44.832Z,3350
2018-05-24T10:26:45.177Z,3220
2018-05-24T10:27:44.602Z,3030
2018-05-24T10:28:44.643Z,2970
2018-05-24T10:29:45.109Z,3105
2018-05-24T10:30:45.113Z,3210
2018-05-24T10:31:45.099Z,3115
2018-05-24T10:32:45.414Z,3105
2018-05-24T10:33:45.341Z,2935
2018-05-24T10:34:44.999Z,2800
2018-05-24T10:35:45.487Z,2835
2018-05-24T10:36:44.960Z,2750
2018-05-24T10:37:47.681Z,2905
2018-05-24T10:38:45.841Z,3195
2018-05-24T10:39:46.054Z,3435
2018-05-24T10:40:46.911Z,3435
2018-05-24T10:41:46.234Z,3335
2018-05-24T10:42:45.704Z,3395
2018-05-24T10:43:46.565Z,3240
2018-05-24T10:44:45.756Z,3210
2018-05-24T10:45:46.252Z,3020
2018-05-24T10:46:46.148Z,2645
2018-05-24T10:47:45.942Z,1615
2018-05-24T10:48:48.667Z,670
2018-05-24T10:49:47.441Z,585
2018-05-24T10:50:48.114Z,540
2018-05-24T10:51:47.756Z,535
2018-05-24T10:52:47.489Z,500
2018-05-24T10:53:47.194Z,505
2018-05-24T10:54:46.935Z,480
2018-05-24T10:55:47.859Z,420
2018-05-24T10:56:47.534Z,425
2018-05-24T10:57:47.549Z,460
2018-05-24T10:58:47.921Z,430
2018-05-24T10:59:47.896Z,460
2018-05-24T11:00:47.609Z,450
2018-05-24T11:01:47.992Z,440
2018-05-24T11:02:48.908Z,440
2018-05-24T11:03:48.545Z,500
2018-05-24T11:04:48.516Z,390
2018-05-24T11:05:49.023Z,515
2018-05-24T11:06:49.745Z,475
2018-05-24T11:07:49.798Z,440
2018-05-24T11:08:49.821Z,425
2018-05-24T11:09:50.568Z,380
2018-05-24T11:10:50.472Z,375
2018-05-24T11:11:51.437Z,360
2018-05-24T11:12:51.120Z,350
2018-05-24T11:13:51.680Z,310
2018-05-24T11:14:51.241Z,325
2018-05-24T11:15:51.403Z,315
2018-05-24T11:16:51.682Z,315
2018-05-24T11:17:52.069Z,300
2018-05-24T11:18:52.181Z,295
2018-05-24T11:19:52.208Z,290
2018-05-24T11:20:52.323Z,290
2018-05-24T11:21:52.690Z,275
2018-05-24T11:22:53.923Z,270
2018-05-24T11:23:52.828Z,275
2018-05-24T11:24:53.519Z,275
2018-05-24T11:25:53.333Z,280
2018-05-24T11:26:53.322Z,300
2018-05-24T11:27:54.445Z,335
2018-05-24T11:28:54.091Z,320
2018-05-24T11:29:53.749Z,275
2018-05-24T11:30:54.197Z,275
2018-05-24T11:31:55.046Z,225
2018-05-24T11:32:54.427Z,225
2018-05-24T11:33:55.148Z,225
2018-05-24T11:34:55.087Z,225
2018-05-24T11:35:55.142Z,230
2018-05-24T11:36:55.876Z,230
2018-05-24T11:37:55.211Z,250
2018-05-24T11:38:55.378Z,275
2018-05-24T11:39:54.823Z,270
2018-05-24T11:40:55.649Z,225
2018-05-24T11:41:55.141Z,215
2018-05-24T11:42:55.663Z,225
2018-05-24T11:43:56.160Z,255
2018-05-24T11:44:56.186Z,255
2018-05-24T11:45:55.438Z,230
2018-05-24T11:46:56.463Z,230
2018-05-24T11:47:56.082Z,235
2018-05-24T11:48:56.567Z,245
2018-05-24T11:49:57.620Z,235
2018-05-24T11:50:56.824Z,235
2018-05-24T11:51:57.428Z,235
2018-05-24T11:52:57.071Z,255
2018-05-24T11:53:57.883Z,280
2018-05-24T11:54:57.772Z,270
2018-05-24T11:55:57.640Z,260
2018-05-24T11:56:57.798Z,300
2018-05-24T11:57:58.829Z,255
2018-05-24T11:58:58.421Z,210
2018-05-24T11:59:59.249Z,195
2018-05-24T12:00:58.581Z,190
2018-05-24T12:01:58.976Z,205
2018-05-24T12:02:59.112Z,205
2018-05-24T12:03:59.728Z,205
2018-05-24T12:04:59.339Z,200
2018-05-24T12:05:59.453Z,205
2018-05-24T12:06:59.394Z,200
2018-05-24T12:07:59.374Z,205
2018-05-24T12:09:00.005Z,210
2018-05-24T12:09:59.872Z,210
2018-05-24T12:11:00.196Z,210
2018-05-24T12:12:01.763Z,200
2018-05-24T12:13:01.882Z,195
2018-05-24T12:14:01.127Z,195
2018-05-24T12:15:01.841Z,195
2018-05-24T12:16:01.338Z,185
2018-05-24T12:17:01.769Z,180
2018-05-24T12:18:01.162Z,180
2018-05-24T12:19:01.566Z,195
2018-05-24T12:20:01.312Z,200
2018-05-24T12:21:02.120Z,205
2018-05-24T12:22:02.142Z,200
2018-05-24T12:23:02.336Z,190
2018-05-24T12:24:02.406Z,195
2018-05-24T12:25:02.430Z,200
2018-05-24T12:26:03.141Z,205
2018-05-24T12:27:03.219Z,200
2018-05-24T12:28:03.256Z,200
2018-05-24T12:29:02.951Z,210
2018-05-24T12:30:03.032Z,205
2018-05-24T12:31:03.732Z,205
2018-05-24T12:32:03.784Z,210
2018-05-24T12:33:05.183Z,200
2018-05-24T12:34:04.694Z,205
2018-05-24T12:35:04.016Z,205
2018-05-24T12:36:03.702Z,210
2018-05-24T12:37:03.622Z,220
2018-05-24T12:38:04.094Z,215
2018-05-24T12:39:04.812Z,215
2018-05-24T12:40:05.567Z,205
2018-05-24T12:41:05.289Z,210
2018-05-24T12:42:05.559Z,215
2018-05-24T12:43:05.447Z,215
2018-05-24T12:44:05.450Z,215
2018-05-24T12:45:05.729Z,215
2018-05-24T12:46:05.435Z,215
2018-05-24T12:47:04.988Z,220
2018-05-24T12:48:05.152Z,225
2018-05-24T12:49:06.436Z,230
2018-05-24T12:50:05.638Z,225
2018-05-24T12:51:05.814Z,225
2018-05-24T12:52:06.288Z,220
2018-05-24T12:53:06.798Z,225
2018-05-24T12:54:06.530Z,225
2018-05-24T12:55:06.853Z,220
2018-05-24T12:56:06.807Z,225
2018-05-24T12:57:07.389Z,225
2018-05-24T12:58:07.051Z,225
2018-05-24T12:59:07.793Z,225
2018-05-24T13:00:21.869Z,230
2018-05-24T13:01:07.417Z,235
2018-05-24T13:02:06.951Z,235
2018-05-24T13:03:06.882Z,235
2018-05-24T13:04:07.952Z,235
2018-05-24T13:05:07.951Z,230
2018-05-24T13:06:07.677Z,230
2018-05-24T13:07:07.286Z,230
2018-05-24T13:08:07.954Z,230
2018-05-24T13:09:08.238Z,230
2018-05-24T13:10:08.163Z,230
2018-05-24T13:11:08.491Z,230
2018-05-24T13:12:08.867Z,230
2018-05-24T13:13:08.288Z,230
2018-05-24T13:14:08.249Z,220
2018-05-24T13:15:08.619Z,220
2018-05-24T13:16:08.319Z,210
2018-05-24T13:17:08.463Z,215
2018-05-24T13:18:08.647Z,215
2018-05-24T13:19:08.865Z,210
2018-05-24T13:20:09.700Z,210
2018-05-24T13:21:10.692Z,210
2018-05-24T13:22:09.596Z,200
2018-05-24T13:23:09.529Z,200
2018-05-24T13:24:10.351Z,200
2018-05-24T13:25:09.649Z,205
2018-05-24T13:26:10.135Z,205
2018-05-24T13:27:09.990Z,210
2018-05-24T13:28:09.861Z,210
2018-05-24T13:29:10.557Z,210
2018-05-24T13:30:10.567Z,210
2018-05-24T13:31:10.657Z,210
2018-05-24T13:32:10.521Z,210
2018-05-24T13:33:10.976Z,210
2018-05-24T13:34:10.806Z,210
2018-05-24T13:35:10.755Z,205
2018-05-24T13:36:10.449Z,205
2018-05-24T13:37:10.904Z,205
2018-05-24T13:38:10.543Z,205
2018-05-24T13:39:12.071Z,205
2018-05-24T13:40:10.843Z,205
2018-05-24T13:41:11.269Z,205
2018-05-24T13:42:11.579Z,205
2018-05-24T13:43:11.469Z,205
2018-05-24T13:44:11.289Z,205
2018-05-24T13:45:12.803Z,200
2018-05-24T13:46:12.802Z,200
2018-05-24T13:47:12.035Z,200
2018-05-24T13:48:12.291Z,200
2018-05-24T13:49:12.227Z,210
2018-05-24T13:50:12.655Z,205
2018-05-24T13:51:11.782Z,210
2018-05-24T13:52:12.734Z,210
2018-05-24T13:53:12.471Z,215
2018-05-24T13:54:12.472Z,215
2018-05-24T13:55:13.431Z,215
2018-05-24T13:56:12.577Z,215
2018-05-24T13:57:12.878Z,210
2018-05-24T13:58:12.778Z,205
2018-05-24T13:59:12.856Z,210
2018-05-24T14:00:18.969Z,205
2018-05-24T14:01:12.528Z,215
2018-05-24T14:02:13.214Z,205
2018-05-24T14:03:12.284Z,205
2018-05-24T14:04:12.408Z,200
2018-05-24T14:05:13.003Z,200
2018-05-24T14:06:14.089Z,200
2018-05-24T14:07:13.797Z,200
2018-05-24T14:08:12.780Z,195
2018-05-24T14:09:13.293Z,200
2018-05-24T14:10:13.090Z,200
2018-05-24T14:11:12.910Z,200
2018-05-24T14:12:13.664Z,200
2018-05-24T14:13:13.662Z,200
2018-05-24T14:14:13.380Z,195
2018-05-24T14:15:14.452Z,195
2018-05-24T14:16:14.171Z,195
2018-05-24T14:17:13.944Z,195
2018-05-24T14:18:14.699Z,195
2018-05-24T14:19:15.365Z,200
2018-05-24T14:20:14.942Z,195
2018-05-24T14:21:15.765Z,200
2018-05-24T14:22:15.206Z,200
2018-05-24T14:23:15.744Z,205
2018-05-24T14:24:15.847Z,200
2018-05-24T14:25:15.647Z,200
2018-05-24T14:26:16.101Z,200
2018-05-24T14:27:15.373Z,195
2018-05-24T14:28:16.039Z,195
2018-05-24T14:29:16.087Z,195
2018-05-24T14:30:16.393Z,190
2018-05-24T14:31:16.591Z,185
2018-05-24T14:32:16.399Z,185
2018-05-24T14:33:17.199Z,180
2018-05-24T14:34:16.986Z,180
2018-05-24T14:35:17.195Z,180
2018-05-24T14:36:17.136Z,185
2018-05-24T14:37:17.704Z,180
2018-05-24T14:38:18.427Z,185
2018-05-24T14:39:17.945Z,180
2018-05-24T14:40:18.169Z,180
2018-05-24T14:41:18.444Z,185
2018-05-24T14:42:19.398Z,180
2018-05-24T14:43:18.707Z,180
2018-05-24T14:44:19.182Z,185
2018-05-24T14:45:19.127Z,185
2018-05-24T14:46:19.695Z,185
2018-05-24T14:47:19.700Z,185
2018-05-24T14:48:19.807Z,180
2018-05-24T14:49:19.568Z,175
2018-05-24T14:50:19.251Z,180
2018-05-24T14:51:19.804Z,180
2018-05-24T14:52:19.748Z,185
2018-05-24T14:53:19.812Z,185
2018-05-24T14:54:20.380Z,190
2018-05-24T14:55:20.179Z,190
2018-05-24T14:56:20.179Z,195
2018-05-24T14:57:20.971Z,190
2018-05-24T14:58:20.539Z,185
2018-05-24T14:59:20.987Z,175
2018-05-24T15:00:21.455Z,170
2018-05-24T15:01:21.199Z,170
2018-05-24T15:02:21.152Z,170
2018-05-24T15:03:21.748Z,170
2018-05-24T15:04:21.493Z,170
2018-05-24T15:05:21.785Z,170
2018-05-24T15:06:22.007Z,170
2018-05-24T15:07:22.559Z,175
2018-05-24T15:08:22.342Z,170
2018-05-24T15:09:23.472Z,170
2018-05-24T15:10:22.323Z,170
2018-05-24T15:11:22.803Z,170
2018-05-24T15:12:23.573Z,170
2018-05-24T15:13:24.133Z,170
2018-05-24T15:14:23.963Z,170
2018-05-24T15:15:25.278Z,175
2018-05-24T15:16:22.894Z,170
2018-05-24T15:17:23.488Z,175
2018-05-24T15:18:23.862Z,170
2018-05-24T15:19:23.992Z,170
2018-05-24T15:20:23.664Z,165
2018-05-24T15:21:24.812Z,170
2018-05-24T15:22:24.632Z,165
2018-05-24T15:23:24.091Z,170
2018-05-24T15:24:25.203Z,165
2018-05-24T15:25:26.051Z,165
2018-05-24T15:26:25.246Z,165
2018-05-24T15:27:25.282Z,160
2018-05-24T15:28:25.349Z,155
2018-05-24T15:29:25.285Z,160
2018-05-24T15:30:26.072Z,160
2018-05-24T15:31:25.860Z,160
2018-05-24T15:32:27.479Z,160
2018-05-24T15:33:26.153Z,160
2018-05-24T15:34:26.236Z,160
2018-05-24T15:35:26.364Z,160
2018-05-24T15:36:26.025Z,160
2018-05-24T15:37:26.837Z,160
2018-05-24T15:38:26.465Z,155
2018-05-24T15:39:27.448Z,150
2018-05-24T15:40:26.817Z,150
2018-05-24T15:41:27.588Z,150
2018-05-24T15:42:27.347Z,155
2018-05-24T15:43:27.223Z,145
2018-05-24T15:44:27.423Z,150
2018-05-24T15:45:29.589Z,150
2018-05-24T15:46:28.270Z,145
2018-05-24T15:47:29.055Z,150
2018-05-24T15:48:28.943Z,145
2018-05-24T15:49:29.519Z,145
2018-05-24T15:50:28.338Z,140
2018-05-24T15:51:29.762Z,140
2018-05-24T15:52:28.625Z,135
2018-05-24T15:53:28.998Z,135
2018-05-24T15:54:28.611Z,135
2018-05-24T15:55:29.583Z,135
2018-05-24T15:56:28.942Z,135
2018-05-24T15:57:28.963Z,130
2018-05-24T15:58:28.655Z,130
2018-05-24T15:59:29.691Z,130
2018-05-24T16:00:33.132Z,130
2018-05-24T16:01:33.095Z,125
2018-05-24T16:02:33.057Z,125
2018-05-24T16:03:33.585Z,125
2018-05-24T16:04:32.969Z,120
2018-05-24T16:05:33.142Z,120
2018-05-24T16:06:33.416Z,120
2018-05-24T16:07:33.310Z,115
2018-05-24T16:08:33.269Z,115
2018-05-24T16:09:33.847Z,115
2018-05-24T16:10:33.121Z,115
2018-05-24T16:11:33.881Z,110
2018-05-24T16:12:33.915Z,110
2018-05-24T16:13:33.298Z,110
2018-05-24T16:14:34.266Z,105
2018-05-24T16:15:34.206Z,105
2018-05-24T16:16:33.397Z,105
2018-05-24T16:17:33.519Z,105
2018-05-24T16:18:34.399Z,100
2018-05-24T16:19:34.407Z,100
2018-05-24T16:20:34.378Z,100
2018-05-24T16:21:34.255Z,95
2018-05-24T16:22:33.993Z,100
2018-05-24T16:23:35.168Z,100
2018-05-24T16:24:35.837Z,100
2018-05-24T16:25:36.039Z,100
2018-05-24T16:26:35.085Z,100
2018-05-24T16:27:35.096Z,100
2018-05-24T16:28:35.306Z,100
2018-05-24T16:29:36.288Z,95
2018-05-24T16:30:37.428Z,95
2018-05-24T16:31:37.315Z,95
2018-05-24T16:32:37.367Z,95
2018-05-24T16:33:35.052Z,95
2018-05-24T16:34:35.666Z,95
2018-05-24T16:35:36.890Z,95
2018-05-24T16:36:35.502Z,90
2018-05-24T16:37:36.369Z,90
2018-05-24T16:38:36.407Z,90
2018-05-24T16:39:36.210Z,90
2018-05-24T16:40:36.188Z,90
2018-05-24T16:41:36.374Z,90
2018-05-24T16:42:35.971Z,90
2018-05-24T16:43:36.068Z,90
2018-05-24T16:44:37.094Z,90
2018-05-24T16:45:36.648Z,90
2018-05-24T16:46:37.308Z,90
2018-05-24T16:47:36.956Z,90
2018-05-24T16:48:36.157Z,90
2018-05-24T16:49:37.055Z,90
2018-05-24T16:50:37.137Z,85
2018-05-24T16:51:37.314Z,90
2018-05-24T16:52:36.888Z,90
2018-05-24T16:53:37.268Z,90
2018-05-24T16:54:37.450Z,90
2018-05-24T16:55:37.139Z,90
2018-05-24T16:56:37.270Z,90
2018-05-24T16:57:36.854Z,90
2018-05-24T16:58:36.677Z,90
2018-05-24T16:59:37.596Z,90
2018-05-24T17:00:37.885Z,90
2018-05-24T17:01:37.564Z,90
2018-05-24T17:02:38.611Z,90
2018-05-24T17:03:38.186Z,90
2018-05-24T17:04:38.316Z,90
2018-05-24T17:05:39.816Z,90
2018-05-24T17:06:38.714Z,85
2018-05-24T17:07:38.972Z,90
2018-05-24T17:08:38.068Z,90
2018-05-24T17:09:38.521Z,90
2018-05-24T17:10:39.081Z,90
2018-05-24T17:11:38.866Z,90
2018-05-24T17:12:39.494Z,90
2018-05-24T17:13:39.103Z,90
2018-05-24T17:14:38.845Z,90
2018-05-24T17:15:40.587Z,90
2018-05-24T17:16:40.188Z,90
2018-05-24T17:17:39.373Z,90
2018-05-24T17:18:40.726Z,90
2018-05-24T17:19:40.054Z,90
2018-05-24T17:20:41.104Z,85
2018-05-24T17:21:40.697Z,85
2018-05-24T17:22:39.535Z,90
2018-05-24T17:23:39.588Z,85
2018-05-24T17:24:40.155Z,85
2018-05-24T17:25:40.397Z,85
2018-05-24T17:26:42.147Z,85
2018-05-24T17:27:41.894Z,80
2018-05-24T17:28:41.687Z,80
2018-05-24T17:29:40.767Z,80
2018-05-24T17:30:40.456Z,80
2018-05-24T17:31:40.912Z,80
2018-05-24T17:32:41.789Z,80
2018-05-24T17:33:41.780Z,75
2018-05-24T17:34:41.723Z,75
2018-05-24T17:35:41.885Z,75
2018-05-24T17:36:41.688Z,75
2018-05-24T17:37:41.723Z,75
2018-05-24T17:38:40.869Z,75
2018-05-24T17:39:41.903Z,70
2018-05-24T17:40:41.655Z,70
2018-05-24T17:41:41.992Z,70
2018-05-24T17:42:41.509Z,70
2018-05-24T17:43:42.075Z,70
2018-05-24T17:44:42.741Z,70
2018-05-24T17:45:42.228Z,65
2018-05-24T17:46:41.361Z,65
2018-05-24T17:47:43.488Z,65
2018-05-24T17:48:42.020Z,65
2018-05-24T17:49:42.838Z,65
2018-05-24T17:50:42.032Z,60
2018-05-24T17:51:41.883Z,60
2018-05-24T17:52:41.441Z,60
2018-05-24T17:53:42.282Z,60
2018-05-24T17:54:43.234Z,60
2018-05-24T17:55:42.782Z,60
2018-05-24T17:56:42.131Z,60
2018-05-24T17:57:42.571Z,55
2018-05-24T17:58:42.484Z,55
2018-05-24T17:59:42.114Z,55
2018-05-24T18:00:41.825Z,55
2018-05-24T18:01:42.650Z,55
2018-05-24T18:02:43.933Z,55
2018-05-24T18:03:43.136Z,50
2018-05-24T18:04:44.050Z,50
2018-05-24T18:05:44.048Z,50
2018-05-24T18:06:44.899Z,50
2018-05-24T18:07:45.905Z,50
2018-05-24T18:08:45.252Z,50
2018-05-24T18:09:45.031Z,45
2018-05-24T18:10:44.453Z,45
2018-05-24T18:11:44.516Z,45
2018-05-24T18:12:44.223Z,45
2018-05-24T18:13:43.932Z,45
2018-05-24T18:14:44.587Z,45
2018-05-24T18:15:44.228Z,40
2018-05-24T18:16:44.972Z,40